Hillier

*Note: All times are displayed in the local standard time of the station location.
**Rain - Equipment is designed to accurately record liquid precipitation; under conditions when precipitation is not in liquid form, the data displayed may not properly reflect rainfall values.

Date Max Temp
(°C)
Min Temp
(°C)
Avg Temp
(°C)
Rain (mm) Avg RH (%) Solar Rad (kJ/m2)
Tue, Jan 15, 2019 0.8 -8.9 -1.8 0.0 90.9 1390.0
Mon, Jan 14, 2019 -3.4 -14.4 -9.2 0.0 85.5 6076.4
Sun, Jan 13, 2019 -8.0 -15.8 -12.1 0.0 76.1 6743.9
Sat, Jan 12, 2019 -6.7 -12.6 -10.0 0.0 63.8 5568.8
Fri, Jan 11, 2019 -10.0 -16.3 -13.1 0.0 62.9 5517.9
Thu, Jan 10, 2019 -4.1 -13.6 -7.7 0.0 70.7 3948.6
Wed, Jan 09, 2019 2.4 -4.2 -0.3 0.2 84.2 2477.4
DateTime Avg Temp (°C) Rain (mm) RH (%) Solar Rad (kJ/m2)
Wed, Jan 16, 2019 05:00 -1.1 0.0 89.2 0.0
Wed, Jan 16, 2019 04:00 -1.7 0.0 97.6 0.0
Wed, Jan 16, 2019 03:00 -1.2 0.0 94.5 0.0
Wed, Jan 16, 2019 02:00 -1.3 0.0 91.8 0.0
Wed, Jan 16, 2019 01:00 -1.4 0.0 90.8 0.0
Wed, Jan 16, 2019 00:00 -1.6 0.0 89.9 0.0
Tue, Jan 15, 2019 23:00 -1.4 0.0 88.4 0.0
Tue, Jan 15, 2019 22:00 -1.2 0.0 90.0 0.0
Tue, Jan 15, 2019 21:00 -1.0 0.0 93.1 0.0
Tue, Jan 15, 2019 20:00 -0.4 0.0 96.4 0.0
Tue, Jan 15, 2019 19:00 0.0 0.0 85.9 0.0
Tue, Jan 15, 2019 18:00 0.0 0.0 86.5 0.0
Tue, Jan 15, 2019 17:00 0.1 0.0 87.4 4.1
Tue, Jan 15, 2019 16:00 0.1 0.0 90.3 13.1
Tue, Jan 15, 2019 15:00 0.1 0.0 91.6 34.4
Tue, Jan 15, 2019 14:00 -0.1 0.0 90.8 38.5
Tue, Jan 15, 2019 13:00 0.5 0.0 86.0 330.9
Tue, Jan 15, 2019 12:00 0.6 0.0 84.1 383.3
Tue, Jan 15, 2019 11:00 -0.3 0.0 89.1 328.8
Tue, Jan 15, 2019 10:00 -1.2 0.0 92.7 180.5
Tue, Jan 15, 2019 09:00 -1.9 0.0 91.5 75.1
Tue, Jan 15, 2019 08:00 -2.0 0.0 88.2 1.3
Tue, Jan 15, 2019 07:00 -2.9 0.0 91.5 0.0
Tue, Jan 15, 2019 06:00 -3.3 0.0 89.6 0.0
Tue, Jan 15, 2019 05:00 -3.6 0.0 91.0 0.0
Tue, Jan 15, 2019 04:00 -4.4 0.0 92.9 0.0
Tue, Jan 15, 2019 03:00 -5.7 0.0 97.1 0.0
Tue, Jan 15, 2019 02:00 -6.2 0.0 97.8 0.0
Tue, Jan 15, 2019 01:00 -7.8 0.0 99.2 0.0
Tue, Jan 15, 2019 00:00 -8.8 0.0 99.0 0.0
Mon, Jan 14, 2019 23:00 -7.4 0.0 96.7 0.0
Mon, Jan 14, 2019 22:00 -7.6 0.0 97.4 0.0
Mon, Jan 14, 2019 21:00 -6.5 0.0 94.4 0.0
Mon, Jan 14, 2019 20:00 -6.3 0.0 93.5 0.0
Mon, Jan 14, 2019 19:00 -7.4 0.0 95.8 0.0
Mon, Jan 14, 2019 18:00 -7.1 0.0 90.7 0.0
Mon, Jan 14, 2019 17:00 -5.2 0.0 80.0 64.8
Mon, Jan 14, 2019 16:00 -3.8 0.0 70.9 439.3
Mon, Jan 14, 2019 15:00 -3.6 0.0 67.6 693.9
Mon, Jan 14, 2019 14:00 -4.0 0.0 58.5 939.2
Mon, Jan 14, 2019 13:00 -5.3 0.0 58.9 1058.9
Mon, Jan 14, 2019 12:00 -7.0 0.0 66.1 1031.6
Mon, Jan 14, 2019 11:00 -8.9 0.0 73.3 918.1
Mon, Jan 14, 2019 10:00 -10.9 0.0 81.2 673.1
Mon, Jan 14, 2019 09:00 -13.4 0.0 90.0 246.6
Mon, Jan 14, 2019 08:00 -14.3 0.0 93.5 10.9
Mon, Jan 14, 2019 07:00 -13.4 0.0 96.2 0.0
Mon, Jan 14, 2019 06:00 -13.0 0.0 94.8 0.0


asterix Register now to access more data! asterix